Time;durP1;ratioP1;P1;durP2;ratioP2;P2;SDS_P1;SDS_P2;PMS_P1;PMS_P2;Temp;Humidity;BMP_temperature;BMP_pressure;BME280_temperature;BME280_humidity;BME280_pressure;Samples;Min_cycle;Max_cycle;Signal;HPM_P1;HPM_P2
2022/03/12 00:01:19;;;;;;;14.48;6.65;;;;;;;;;;5054551;28;20013;-72
2022/03/12 00:03:47;;;;;;;11.13;6.55;;;;;;;;;;5054210;28;20108;-71
2022/03/12 00:06:13;;;;;;;8.60;4.65;;;;;;;;;;5053757;28;20409;-71
2022/03/12 00:08:44;;;;;;;9.45;3.35;;;;;;;;;;5054144;28;20059;-71
2022/03/12 00:11:36;;;;;;;6.82;2.25;;;;;;;;;;5054425;28;20025;-71
2022/03/12 00:14:04;;;;;;;8.82;2.70;;;;;;;;;;5052209;28;20480;-72
2022/03/12 00:16:32;;;;;;;10.32;4.22;;;;;;;;;;5053747;28;20175;-71
2022/03/12 00:19:02;;;;;;;8.15;3.38;;;;;;;;;;5053703;28;20013;-71
2022/03/12 00:21:30;;;;;;;9.02;3.92;;;;;;;;;;5053960;28;20022;-72
2022/03/12 00:23:58;;;;;;;7.55;2.95;;;;;;;;;;5053674;28;20501;-71
2022/03/12 00:26:29;;;;;;;15.90;8.38;;;;;;;;;;5053529;28;20021;-72
2022/03/12 00:28:55;;;;;;;14.55;6.85;;;;;;;;;;5053822;28;20017;-71
2022/03/12 00:31:22;;;;;;;14.32;5.70;;;;;;;;;;5053473;28;20079;-71
2022/03/12 00:33:48;;;;;;;11.80;5.60;;;;;;;;;;5053440;28;20021;-71
2022/03/12 00:36:15;;;;;;;11.82;5.95;;;;;;;;;;5053403;28;20025;-71
2022/03/12 00:38:41;;;;;;;47.05;30.38;;;;;;;;;;5053627;28;20040;-71
2022/03/12 00:41:07;;;;;;;17.27;11.75;;;;;;;;;;5053859;28;20032;-71
2022/03/12 00:43:34;;;;;;;15.75;7.10;;;;;;;;;;5053346;28;20438;-71
2022/03/12 00:46:00;;;;;;;8.98;3.78;;;;;;;;;;5053290;28;20535;-71
2022/03/12 00:48:26;;;;;;;20.13;2.83;;;;;;;;;;5053252;28;20075;-71
2022/03/12 00:50:53;;;;;;;15.05;3.83;;;;;;;;;;5053168;28;20067;-71
2022/03/12 00:53:19;;;;;;;9.05;3.50;;;;;;;;;;5053217;28;20040;-71
2022/03/12 00:55:45;;;;;;;8.20;2.67;;;;;;;;;;5053088;28;20112;-71
2022/03/12 00:58:11;;;;;;;9.80;4.25;;;;;;;;;;5053031;28;20481;-71
2022/03/12 01:00:37;;;;;;;10.10;3.70;;;;;;;;;;5053124;28;20123;-71
2022/03/12 01:03:03;;;;;;;13.00;5.00;;;;;;;;;;5053084;28;20058;-71
2022/03/12 01:05:48;;;;;;;9.07;2.97;;;;;;;;;;5052957;28;20470;-71
2022/03/12 01:08:14;;;;;;;11.02;1.98;;;;;;;;;;5073391;28;20049;-71
2022/03/12 01:10:41;;;;;;;8.05;2.47;;;;;;;;;;5071663;28;20489;-71
2022/03/12 01:13:07;;;;;;;10.75;1.88;;;;;;;;;;5073032;28;20104;-71
2022/03/12 01:15:34;;;;;;;9.52;2.55;;;;;;;;;;5073033;28;20047;-71
2022/03/12 01:18:01;;;;;;;8.90;2.47;;;;;;;;;;5071744;28;20035;-71
2022/03/12 01:20:27;;;;;;;12.50;3.17;;;;;;;;;;5072955;28;20028;-71
2022/03/12 01:22:53;;;;;;;7.80;2.10;;;;;;;;;;5073275;28;20029;-71
2022/03/12 01:25:20;;;;;;;7.13;1.80;;;;;;;;;;5073177;28;20378;-71
2022/03/12 01:27:46;;;;;;;11.07;2.35;;;;;;;;;;5073161;28;20376;-71
2022/03/12 01:30:12;;;;;;;7.90;2.17;;;;;;;;;;5072801;28;20033;-71
2022/03/12 01:32:38;;;;;;;10.23;2.63;;;;;;;;;;5072830;28;20021;-71
2022/03/12 01:35:05;;;;;;;10.15;1.95;;;;;;;;;;5073131;28;20050;-71
2022/03/12 01:37:31;;;;;;;8.27;2.17;;;;;;;;;;5073321;28;20021;-71
2022/03/12 01:39:58;;;;;;;11.98;2.30;;;;;;;;;;5072800;28;20028;-71
2022/03/12 01:42:27;;;;;;;6.82;1.70;;;;;;;;;;5072757;28;20178;-71
2022/03/12 01:44:53;;;;;;;8.80;1.75;;;;;;;;;;5072731;28;20056;-71
2022/03/12 01:47:20;;;;;;;6.22;1.58;;;;;;;;;;5072783;28;20035;-71
2022/03/12 01:49:47;;;;;;;12.93;1.88;;;;;;;;;;5072662;28;20469;-71
2022/03/12 01:52:14;;;;;;;8.77;2.22;;;;;;;;;;5072648;28;20114;-71
2022/03/12 01:54:40;;;;;;;13.30;1.92;;;;;;;;;;5072801;28;20394;-71
2022/03/12 01:57:09;;;;;;;5.22;1.90;;;;;;;;;;5072942;28;20020;-71
2022/03/12 01:59:35;;;;;;;13.68;3.08;;;;;;;;;;5072598;28;20028;-71
2022/03/12 02:02:03;;;;;;;16.45;2.22;;;;;;;;;;5072551;28;20028;-71
2022/03/12 02:04:29;;;;;;;8.93;1.83;;;;;;;;;;5070060;28;20033;-71
2022/03/12 02:06:58;;;;;;;12.38;2.30;;;;;;;;;;5053132;28;20036;-71
2022/03/12 02:09:24;;;;;;;10.55;2.40;;;;;;;;;;5034680;28;20078;-71
2022/03/12 02:11:51;;;;;;;11.20;2.72;;;;;;;;;;5056386;28;20044;-71
2022/03/12 02:14:21;;;;;;;14.50;2.67;;;;;;;;;;5056353;28;20028;-71
2022/03/12 02:16:47;;;;;;;;;;;;;;;;;;5056773;28;20025;-71
2022/03/12 02:19:13;;;;;;;7.20;1.92;;;;;;;;;;5055978;28;19912;-71
2022/03/12 02:22:05;;;;;;;10.82;1.60;;;;;;;;;;5056185;28;20141;-71
2022/03/12 02:24:32;;;;;;;13.93;3.28;;;;;;;;;;5053885;28;20040;-71
2022/03/12 02:27:00;;;;;;;12.43;2.53;;;;;;;;;;5056353;28;20393;-71
2022/03/12 02:29:26;;;;;;;12.27;3.33;;;;;;;;;;5055987;28;20056;-71
2022/03/12 02:32:02;;;;;;;9.32;1.90;;;;;;;;;;5037786;28;20032;-71
2022/03/12 02:34:30;;;;;;;11.40;2.70;;;;;;;;;;5056221;28;20017;-71
2022/03/12 02:36:57;;;;;;;11.55;2.40;;;;;;;;;;5055624;28;20021;-71
2022/03/12 02:39:24;;;;;;;10.63;2.35;;;;;;;;;;5055855;28;20465;-71
2022/03/12 02:41:50;;;;;;;14.55;3.00;;;;;;;;;;5055501;28;20048;-71
2022/03/12 02:44:21;;;;;;;11.20;2.55;;;;;;;;;;5055674;28;20386;-71
2022/03/12 02:47:11;;;;;;;16.38;2.53;;;;;;;;;;5055984;28;20033;-71
2022/03/12 02:49:40;;;;;;;13.97;2.10;;;;;;;;;;5037231;28;20032;-71
2022/03/12 02:52:06;;;;;;;13.38;3.25;;;;;;;;;;5055609;28;20504;-71
2022/03/12 02:54:34;;;;;;;13.65;2.50;;;;;;;;;;5055206;28;20103;-71
2022/03/12 02:57:02;;;;;;;11.63;2.03;;;;;;;;;;5055237;28;20434;-71
2022/03/12 02:59:29;;;;;;;10.93;2.17;;;;;;;;;;5055227;28;20104;-71
2022/03/12 03:01:57;;;;;;;12.73;2.10;;;;;;;;;;5055174;28;20051;-71
2022/03/12 03:04:24;;;;;;;10.40;2.42;;;;;;;;;;5036995;28;20029;-71
2022/03/12 03:06:50;;;;;;;9.60;2.38;;;;;;;;;;5036981;28;20269;-72
2022/03/12 03:09:17;;;;;;;13.77;3.00;;;;;;;;;;5055189;28;20029;-71
2022/03/12 03:11:44;;;;;;;27.95;9.25;;;;;;;;;;5054970;28;20024;-71
2022/03/12 03:14:11;;;;;;;15.70;5.15;;;;;;;;;;5055463;28;20023;-71
2022/03/12 03:16:37;;;;;;;10.10;2.40;;;;;;;;;;5054907;28;20074;-71
2022/03/12 03:19:04;;;;;;;9.80;2.45;;;;;;;;;;5054838;28;20058;-71
2022/03/12 03:21:30;;;;;;;17.00;3.50;;;;;;;;;;5053706;28;20021;-71
2022/03/12 03:23:56;;;;;;;16.02;3.20;;;;;;;;;;5054738;28;20082;-71
2022/03/12 03:26:35;;;;;;;27.40;7.03;;;;;;;;;;5054655;28;20017;-71
2022/03/12 03:29:01;;;;;;;13.68;3.28;;;;;;;;;;5054542;28;20031;-71
2022/03/12 03:31:27;;;;;;;14.48;4.53;;;;;;;;;;5055081;28;20108;-71
2022/03/12 03:33:53;;;;;;;13.23;5.10;;;;;;;;;;5036621;28;20025;-71
2022/03/12 03:36:19;;;;;;;18.48;6.90;;;;;;;;;;5054478;28;20024;-71
2022/03/12 03:38:45;;;;;;;20.27;3.40;;;;;;;;;;5054425;28;20025;-71
2022/03/12 03:41:11;;;;;;;17.67;4.53;;;;;;;;;;5054388;28;20108;-71
2022/03/12 03:43:37;;;;;;;12.70;3.55;;;;;;;;;;5054628;28;20025;-71
2022/03/12 03:46:03;;;;;;;17.90;3.72;;;;;;;;;;5054272;28;20485;-71
2022/03/12 03:48:32;;;;;;;15.02;4.95;;;;;;;;;;5054258;28;20060;-71
2022/03/12 03:50:58;;;;;;;14.70;4.10;;;;;;;;;;5054719;28;20021;-71
2022/03/12 03:53:26;;;;;;;12.00;3.55;;;;;;;;;;5054173;28;20025;-71
2022/03/12 03:55:54;;;;;;;15.50;4.03;;;;;;;;;;5054074;28;20100;-71
2022/03/12 03:58:21;;;;;;;13.05;4.82;;;;;;;;;;5054104;28;20032;-71
2022/03/12 04:00:57;;;;;;;11.02;3.35;;;;;;;;;;5054034;28;20025;-71
2022/03/12 04:03:24;;;;;;;11.90;4.75;;;;;;;;;;5054564;28;20354;-71
2022/03/12 04:05:51;;;;;;;11.63;3.92;;;;;;;;;;5053757;28;20139;-71
2022/03/12 04:08:17;;;;;;;17.70;6.95;;;;;;;;;;5054157;28;20032;-71
2022/03/12 04:10:43;;;;;;;12.88;3.33;;;;;;;;;;5054047;28;20025;-71
2022/03/12 04:13:15;;;;;;;15.05;6.22;;;;;;;;;;5054062;28;20071;-71
2022/03/12 04:15:41;;;;;;;10.95;3.65;;;;;;;;;;5053959;28;20377;-71
2022/03/12 04:18:08;;;;;;;16.15;6.47;;;;;;;;;;5053717;28;20436;-71
2022/03/12 04:20:34;;;;;;;14.10;6.60;;;;;;;;;;5053619;28;20087;-70
2022/03/12 04:23:01;;;;;;;13.65;4.35;;;;;;;;;;5053677;28;20440;-71
2022/03/12 04:25:31;;;;;;;14.40;4.78;;;;;;;;;;5053610;28;20024;-71
2022/03/12 04:27:57;;;;;;;11.15;3.55;;;;;;;;;;5054190;28;20025;-71
2022/03/12 04:30:23;;;;;;;15.43;5.72;;;;;;;;;;5053978;28;20025;-71
2022/03/12 04:32:49;;;;;;;12.00;3.10;;;;;;;;;;5053420;28;20032;-71
2022/03/12 04:35:19;;;;;;;11.73;2.75;;;;;;;;;;5053727;28;20478;-71
2022/03/12 04:37:45;;;;;;;8.77;2.65;;;;;;;;;;5053368;28;20055;-71
2022/03/12 04:40:14;;;;;;;8.93;2.53;;;;;;;;;;5053320;28;20036;-71
2022/03/12 04:42:43;;;;;;;15.37;3.13;;;;;;;;;;5053649;28;20028;-71
2022/03/12 04:45:11;;;;;;;8.60;2.70;;;;;;;;;;5053609;28;20021;-71
2022/03/12 04:47:37;;;;;;;8.25;1.88;;;;;;;;;;5053556;28;20389;-71
2022/03/12 04:50:05;;;;;;;8.32;1.90;;;;;;;;;;5053134;28;20473;-71
2022/03/12 04:52:31;;;;;;;13.88;2.45;;;;;;;;;;5035366;28;20036;-72
2022/03/12 04:54:58;;;;;;;10.50;2.25;;;;;;;;;;5053427;28;20184;-71
2022/03/12 04:57:24;;;;;;;9.82;2.90;;;;;;;;;;5053158;28;20032;-71
2022/03/12 04:59:50;;;;;;;9.30;2.40;;;;;;;;;;5053171;28;20428;-71
2022/03/12 05:02:16;;;;;;;14.02;3.30;;;;;;;;;;5053360;28;20067;-71
2022/03/12 05:04:42;;;;;;;13.18;4.13;;;;;;;;;;5053168;28;20048;-71
2022/03/12 05:07:11;;;;;;;10.75;2.42;;;;;;;;;;5035216;28;20033;-71
2022/03/12 05:09:37;;;;;;;11.40;3.00;;;;;;;;;;5053289;28;20025;-71
2022/03/12 05:12:05;;;;;;;10.85;2.50;;;;;;;;;;5053033;28;20021;-71
2022/03/12 05:14:33;;;;;;;14.88;3.45;;;;;;;;;;5035162;28;20025;-71
2022/03/12 05:16:59;;;;;;;10.40;3.30;;;;;;;;;;5053010;28;20052;-71
2022/03/12 05:19:25;;;;;;;14.07;2.58;;;;;;;;;;5053237;28;20017;-71
2022/03/12 05:21:51;;;;;;;13.85;2.10;;;;;;;;;;5052933;28;20485;-71
2022/03/12 05:24:17;;;;;;;12.23;2.53;;;;;;;;;;5052913;28;20028;-71
2022/03/12 05:26:44;;;;;;;15.93;2.65;;;;;;;;;;5052890;28;20025;-71
2022/03/12 05:29:10;;;;;;;23.83;7.90;;;;;;;;;;5052780;28;20025;-71
2022/03/12 05:31:36;;;;;;;24.42;6.32;;;;;;;;;;5052844;28;20036;-71
2022/03/12 05:34:02;;;;;;;15.45;5.20;;;;;;;;;;5053071;28;20028;-71
2022/03/12 05:36:28;;;;;;;14.48;3.22;;;;;;;;;;5052820;28;20021;-71
2022/03/12 05:38:54;;;;;;;16.35;6.13;;;;;;;;;;5052766;28;20048;-71
2022/03/12 05:41:20;;;;;;;17.08;4.95;;;;;;;;;;5052721;28;20029;-72
2022/03/12 05:43:46;;;;;;;18.05;5.30;;;;;;;;;;5053275;28;20025;-71
2022/03/12 05:46:14;;;;;;;18.05;7.35;;;;;;;;;;5056026;28;20504;-71
2022/03/12 05:48:41;;;;;;;12.73;4.20;;;;;;;;;;5056606;28;20082;-71
2022/03/12 05:51:09;;;;;;;7.40;2.30;;;;;;;;;;5056484;28;20021;-71
2022/03/12 05:53:36;;;;;;;13.02;4.47;;;;;;;;;;5056485;28;20021;-72
2022/03/12 05:56:02;;;;;;;10.77;3.72;;;;;;;;;;5056362;28;20385;-71
2022/03/12 05:58:28;;;;;;;10.60;2.83;;;;;;;;;;5056384;28;20029;-71
2022/03/12 06:00:55;;;;;;;11.55;3.35;;;;;;;;;;5056373;28;20025;-72
2022/03/12 06:03:24;;;;;;;11.98;2.45;;;;;;;;;;5056544;28;20029;-71
2022/03/12 06:05:54;;;;;;;10.05;1.85;;;;;;;;;;5056050;28;20117;-72
2022/03/12 06:08:22;;;;;;;7.95;1.90;;;;;;;;;;5056813;28;20516;-71
2022/03/12 06:10:51;;;;;;;9.63;2.42;;;;;;;;;;5056079;28;20021;-72
2022/03/12 06:13:21;;;;;;;9.10;1.92;;;;;;;;;;5055704;28;20505;-71
2022/03/12 06:15:54;;;;;;;13.27;2.20;;;;;;;;;;5038162;28;20025;-71
2022/03/12 06:18:22;;;;;;;8.68;1.70;;;;;;;;;;5037869;28;20027;-71
2022/03/12 06:20:48;;;;;;;5.47;1.70;;;;;;;;;;5055973;28;20071;-71
2022/03/12 06:23:14;;;;;;;9.18;2.33;;;;;;;;;;5038004;28;20397;-71
2022/03/12 06:25:40;;;;;;;11.30;2.47;;;;;;;;;;5055878;28;20401;-71
2022/03/12 06:28:07;;;;;;;13.55;7.22;;;;;;;;;;5055821;28;20564;-71
2022/03/12 06:30:33;;;;;;;8.55;2.20;;;;;;;;;;5055670;28;20477;-71
2022/03/12 06:32:59;;;;;;;10.30;2.40;;;;;;;;;;5055729;28;20025;-71
2022/03/12 06:35:26;;;;;;;10.32;2.03;;;;;;;;;;5055929;28;20021;-72
2022/03/12 06:37:52;;;;;;;11.50;1.88;;;;;;;;;;5055842;28;20389;-71
2022/03/12 06:40:18;;;;;;;7.95;1.90;;;;;;;;;;5055591;28;20488;-70
2022/03/12 06:42:45;;;;;;;8.15;1.95;;;;;;;;;;5055845;28;20029;-70
2022/03/12 06:45:16;;;;;;;12.02;2.92;;;;;;;;;;5055760;28;20465;-71
2022/03/12 06:47:43;;;;;;;;;;;;;;;;;;5055944;28;20025;-71
2022/03/12 06:50:10;;;;;;;9.43;2.85;;;;;;;;;;5055429;28;19908;-72
2022/03/12 06:52:37;;;;;;;10.80;3.25;;;;;;;;;;5055659;28;20067;-71
2022/03/12 06:55:03;;;;;;;10.60;2.22;;;;;;;;;;5055209;28;20428;-72
2022/03/12 06:57:29;;;;;;;13.57;3.85;;;;;;;;;;5055080;28;20021;-71
2022/03/12 06:59:55;;;;;;;12.80;5.35;;;;;;;;;;5055743;28;20035;-71
2022/03/12 07:02:21;;;;;;;11.23;4.55;;;;;;;;;;5055167;28;20072;-71
2022/03/12 07:04:48;;;;;;;17.10;5.53;;;;;;;;;;5054947;28;20044;-71
2022/03/12 07:07:14;;;;;;;11.98;3.58;;;;;;;;;;5037195;28;20040;-72
2022/03/12 07:09:41;;;;;;;14.43;5.22;;;;;;;;;;5054916;28;20508;-71
2022/03/12 07:12:07;;;;;;;12.02;5.10;;;;;;;;;;5055024;28;20070;-71
2022/03/12 07:14:34;;;;;;;14.75;5.15;;;;;;;;;;5055198;28;20076;-71
2022/03/12 07:17:00;;;;;;;15.13;5.05;;;;;;;;;;5037003;28;20558;-71
2022/03/12 07:19:26;;;;;;;10.30;3.58;;;;;;;;;;5054845;28;20056;-72
2022/03/12 07:21:52;;;;;;;16.90;5.60;;;;;;;;;;5054741;28;20025;-71
2022/03/12 07:24:18;;;;;;;14.82;3.28;;;;;;;;;;5054748;28;20036;-71
2022/03/12 07:26:45;;;;;;;10.18;2.92;;;;;;;;;;5054709;28;20039;-72
2022/03/12 07:29:11;;;;;;;13.02;4.72;;;;;;;;;;5055161;28;20134;-72
2022/03/12 07:31:37;;;;;;;16.65;3.72;;;;;;;;;;5054614;28;20049;-71
2022/03/12 07:34:04;;;;;;;15.30;4.07;;;;;;;;;;5054576;28;20029;-71
2022/03/12 07:36:30;;;;;;;16.67;5.25;;;;;;;;;;5054762;28;20059;-71
2022/03/12 07:38:58;;;;;;;17.55;5.55;;;;;;;;;;5054723;28;20021;-71
2022/03/12 07:41:24;;;;;;;14.55;6.32;;;;;;;;;;5054483;28;20108;-71
2022/03/12 07:43:50;;;;;;;21.48;11.05;;;;;;;;;;5054718;28;20452;-71
2022/03/12 07:46:16;;;;;;;18.88;4.43;;;;;;;;;;5054356;28;20109;-71
2022/03/12 07:48:42;;;;;;;13.32;3.50;;;;;;;;;;5054556;28;20104;-71
2022/03/12 07:51:09;;;;;;;10.57;4.07;;;;;;;;;;5036338;28;20025;-72
2022/03/12 07:53:36;;;;;;;13.20;3.35;;;;;;;;;;5054466;28;20477;-72
2022/03/12 07:56:03;;;;;;;13.68;3.95;;;;;;;;;;5054351;28;20024;-71
2022/03/12 07:58:29;;;;;;;12.52;4.18;;;;;;;;;;5036244;28;20124;-71
2022/03/12 08:00:58;;;;;;;11.45;4.43;;;;;;;;;;5054298;28;20102;-71
2022/03/12 08:03:24;;;;;;;14.70;4.80;;;;;;;;;;5035910;28;20402;-71
2022/03/12 08:05:50;;;;;;;16.40;8.18;;;;;;;;;;5053757;28;20108;-71
2022/03/12 08:08:17;;;;;;;14.98;4.50;;;;;;;;;;5053291;28;20531;-71
2022/03/12 08:13:29;;;;;;;13.50;4.47;;;;;;;;;;5053879;28;20086;-71
2022/03/12 08:15:55;;;;;;;16.80;6.45;;;;;;;;;;5053757;28;20028;-71
2022/03/12 08:18:22;;;;;;;23.50;10.05;;;;;;;;;;5053762;28;20036;-71
2022/03/12 08:20:48;;;;;;;17.10;4.20;;;;;;;;;;5053919;28;20071;-72
2022/03/12 08:23:14;;;;;;;20.95;14.95;;;;;;;;;;5053643;28;20052;-71
2022/03/12 08:25:40;;;;;;;13.63;6.82;;;;;;;;;;5053888;28;20029;-72
2022/03/12 08:28:07;;;;;;;15.10;8.45;;;;;;;;;;5053886;28;20029;-72
2022/03/12 08:30:33;;;;;;;13.10;7.45;;;;;;;;;;5053716;28;20025;-72
2022/03/12 08:33:01;;;;;;;16.98;10.35;;;;;;;;;;5053595;28;20025;-73
2022/03/12 08:35:27;;;;;;;12.48;5.38;;;;;;;;;;5053809;28;20046;-73
2022/03/12 08:37:53;;;;;;;8.52;4.40;;;;;;;;;;5053394;28;20029;-72
2022/03/12 08:40:19;;;;;;;13.57;6.47;;;;;;;;;;5053377;28;20028;-73
2022/03/12 08:42:45;;;;;;;12.80;5.82;;;;;;;;;;5053654;28;20025;-73
2022/03/12 08:45:11;;;;;;;11.70;4.40;;;;;;;;;;5053331;28;20025;-73
2022/03/12 08:47:38;;;;;;;15.75;7.55;;;;;;;;;;5053859;28;20100;-72
2022/03/12 08:50:08;;;;;;;13.55;4.90;;;;;;;;;;5053384;28;20436;-72
2022/03/12 08:52:34;;;;;;;11.82;7.10;;;;;;;;;;5053227;28;20451;-72
2022/03/12 08:55:00;;;;;;;14.63;6.75;;;;;;;;;;5053167;28;20071;-72
2022/03/12 08:57:26;;;;;;;11.20;6.05;;;9.50;99.90;;;;;;5053179;28;20032;-73
2022/03/12 08:59:51;;;;;;;14.90;5.10;;;30.30;60.80;;;;;;5053103;28;20500;-72
2022/03/12 09:02:18;;;;;;;12.90;5.78;;;30.00;56.80;;;;;;5053100;28;20474;-72
2022/03/12 09:04:43;;;;;;;12.93;4.68;;;29.70;57.00;;;;;;5052868;28;20120;-72
2022/03/12 09:07:09;;;;;;;11.73;3.55;;;29.70;56.50;;;;;;5053117;28;20456;-72
2022/03/12 09:09:35;;;;;;;10.65;2.97;;;30.20;55.70;;;;;;5053287;28;20052;-72
2022/03/12 09:12:00;;;;;;;11.38;3.28;;;30.40;53.90;;;;;;5035162;28;20037;-72
2022/03/12 09:14:28;;;;;;;13.75;4.70;;;30.60;53.10;;;;;;5053012;28;20481;-72
2022/03/12 09:16:54;;;;;;;12.45;3.33;;;30.90;52.60;;;;;;5053286;28;20036;-72
2022/03/12 09:19:20;;;;;;;11.18;2.83;;;31.10;52.20;;;;;;5054676;28;20021;-73
2022/03/12 09:21:46;;;;;;;12.45;3.30;;;31.20;51.60;;;;;;5057080;28;20078;-73
2022/03/12 09:24:12;;;;;;;9.13;2.67;;;31.10;50.90;;;;;;5057334;28;20017;-73
2022/03/12 09:26:37;;;;;;;10.90;2.88;;;31.10;50.10;;;;;;5056953;28;20032;-73
2022/03/12 09:29:03;;;;;;;10.95;2.97;;;31.30;51.10;;;;;;5053124;28;20104;-74
2022/03/12 09:31:29;;;;;;;13.45;2.83;;;31.60;50.50;;;;;;5033482;28;20489;-74
2022/03/12 09:33:55;;;;;;;10.95;3.45;;;;;;;;;;5036964;28;20430;-74
2022/03/12 09:36:20;;;;;;;10.77;2.90;;;31.40;48.90;;;;;;5053910;28;20087;-74
2022/03/12 09:38:46;;;;;;;11.05;3.30;;;29.00;52.30;;;;;;5057239;28;20025;-74
2022/03/12 09:41:12;;;;;;;10.02;2.97;;;30.70;51.50;;;;;;5057291;28;20033;-74
2022/03/12 09:43:37;;;;;;;11.02;2.80;;;31.10;49.10;;;;;;5057008;28;20021;-74
2022/03/12 09:46:03;;;;;;;11.65;2.65;;;31.30;48.40;;;;;;5056736;28;20021;-74
2022/03/12 09:48:29;;;;;;;8.10;3.00;;;31.00;48.40;;;;;;5047749;28;20386;-74
2022/03/12 09:50:55;;;;;;;8.07;2.58;;;31.40;48.50;;;;;;5036940;28;20053;-74
2022/03/12 09:53:21;;;;;;;10.05;2.88;;;32.00;47.80;;;;;;5035933;28;20030;-74
2022/03/12 09:55:47;;;;;;;8.90;2.55;;;31.90;48.30;;;;;;5036758;28;20029;-74
2022/03/12 09:58:13;;;;;;;11.23;3.05;;;32.20;47.20;;;;;;5021117;28;20021;-74
2022/03/12 10:00:39;;;;;;;10.45;2.78;;;31.10;46.80;;;;;;5050831;28;20085;-72
2022/03/12 10:03:05;;;;;;;8.52;2.80;;;;;;;;;;5056277;28;20151;-74
2022/03/12 10:05:33;;;;;;;9.27;2.25;;;;;;;;;;5055987;28;20515;-71
2022/03/12 10:07:58;;;;;;;11.23;2.50;;;31.80;47.40;;;;;;5056274;28;20112;-74
2022/03/12 10:10:25;;;;;;;11.07;3.25;;;;;;;;;;5045707;28;20057;-75
2022/03/12 10:12:51;;;;;;;13.77;2.67;;;;;;;;;;5036088;28;20045;-72
2022/03/12 10:15:17;;;;;;;10.13;2.85;;;;;;;;;;5036170;28;20478;-74
2022/03/12 10:17:44;;;;;;;9.18;2.45;;;24.20;57.00;;;;;;5036903;28;20021;-75
2022/03/12 10:20:11;;;;;;;10.60;2.50;;;26.00;52.00;;;;;;5035859;28;20033;-75
2022/03/12 10:22:41;;;;;;;12.55;3.00;;;28.00;50.70;;;;;;5035985;28;20060;-74
2022/03/12 10:25:07;;;;;;;11.82;2.88;;;;;;;;;;5036502;28;20018;-70
2022/03/12 10:27:34;;;;;;;10.38;2.30;;;;;;;;;;5036364;28;20025;-71
2022/03/12 10:30:00;;;;;;;8.20;2.25;;;;;;;;;;5052679;28;20083;-72
2022/03/12 10:32:27;;;;;;;7.22;2.20;;;;;;;;;;5055285;28;20029;-70
2022/03/12 10:34:56;;;;;;;9.57;2.55;;;;;;;;;;5055738;28;20108;-71
2022/03/12 10:37:24;;;;;;;11.55;2.95;;;;;;;;;;5055610;28;20104;-71
2022/03/12 10:40:00;;;;;;;9.15;2.53;;;29.20;48.70;;;;;;5055734;28;20442;-74
2022/03/12 10:42:26;;;;;;;7.93;2.33;;;26.80;53.10;;;;;;5037896;28;20024;-73
2022/03/12 10:44:52;;;;;;;11.25;2.63;;;;;;;;;;5035576;28;20021;-73
2022/03/12 10:47:27;;;;;;;9.77;2.35;;;;;;;;;;5038094;28;20021;-74
2022/03/12 10:49:56;;;;;;;7.13;2.35;;;;;;;;;;5033422;28;20473;-72
2022/03/12 10:52:22;;;;;;;8.50;2.60;;;;;;;;;;5048539;28;20558;-71
2022/03/12 10:54:49;;;;;;;10.25;2.50;;;;;;;;;;5039735;28;20030;-71
2022/03/12 10:57:18;;;;;;;9.93;2.45;;;;;;;;;;5037318;28;20105;-76
2022/03/12 10:59:45;;;;;;;10.98;2.92;;;;;;;;;;5053446;28;20086;-73
2022/03/12 11:02:11;;;;;;;8.88;2.47;;;;;;;;;;5036449;28;20060;-75
2022/03/12 11:04:39;;;;;;;8.95;2.90;;;;;;;;;;5038638;28;20541;-71
2022/03/12 11:07:29;;;;;;;7.28;2.38;;;;;;;;;;5054547;28;20025;-72
2022/03/12 11:09:55;;;;;;;9.00;2.25;;;;;;;;;;5055583;28;20060;-73
2022/03/12 11:12:38;;;;;;;10.88;3.08;;;;;;;;;;5055575;28;20474;-73
2022/03/12 11:15:06;;;;;;;8.68;3.03;;;;;;;;;;5055352;28;20108;-71
2022/03/12 11:17:43;;;;;;;9.07;2.65;;;;;;;;;;5055027;28;20052;-72
2022/03/12 11:20:27;;;;;;;9.10;3.15;;;;;;;;;;5054590;28;20033;-73
2022/03/12 11:23:08;;;;;;;7.10;2.78;;;29.30;48.50;;;;;;5054814;28;20021;-70
2022/03/12 11:25:36;;;;;;;8.02;2.70;;;25.30;52.30;;;;;;5053927;28;20028;-69
2022/03/12 11:28:17;;;;;;;9.95;2.35;;;;;;;;;;5052044;28;20017;-70
2022/03/12 11:30:43;;;;;;;11.48;2.95;;;;;;;;;;5034064;28;20025;-71
2022/03/12 11:33:09;;;;;;;8.93;2.58;;;;;;;;;;5052202;28;20025;-71
2022/03/12 11:35:39;;;;;;;10.65;3.15;;;;;;;;;;5051452;28;20508;-71
2022/03/12 11:38:04;;;;;;;;;;;;;;;;;;5052184;28;20064;-71
2022/03/12 11:40:40;;;;;;;10.38;2.85;;;;;;;;;;5052287;28;19951;-71
2022/03/12 11:43:19;;;;;;;14.20;3.15;;;;;;;;;;5052309;28;20087;-71
2022/03/12 11:45:45;;;;;;;10.00;2.13;;;;;;;;;;5053729;28;20147;-71
2022/03/12 11:48:11;;;;;;;10.60;2.70;;;;;;;;;;5053611;28;20021;-71
2022/03/12 11:50:38;;;;;;;10.90;3.03;;;;;;;;;;5053955;28;20040;-71
2022/03/12 11:53:04;;;;;;;7.38;2.38;;;;;;;;;;5053174;28;20384;-70
2022/03/12 11:55:31;;;;;;;8.52;3.03;;;27.20;49.40;;;;;;5054088;28;20112;-71
2022/03/12 11:57:59;;;;;;;9.77;2.95;;;18.50;66.70;;;;;;5054187;28;20108;-70
2022/03/12 12:00:30;;;;;;;5.88;2.30;;;18.20;68.00;;;;;;5054020;28;20111;-70
2022/03/12 12:02:56;;;;;;;10.50;2.40;;;;;;;;;;5054653;28;20100;-70
2022/03/12 12:05:23;;;;;;;7.72;1.90;;;;;;;;;;5053930;28;20045;-70
2022/03/12 12:07:51;;;;;;;7.60;1.88;;;;;;;;;;5053974;28;20428;-70
2022/03/12 12:10:18;;;;;;;10.73;2.40;;;;;;;;;;5053940;28;20025;-70
2022/03/12 12:12:46;;;;;;;7.80;2.28;;;;;;;;;;5053882;28;20486;-70
2022/03/12 12:15:15;;;;;;;8.05;2.38;;;;;;;;;;5053831;28;20090;-70
2022/03/12 12:17:42;;;;;;;6.05;2.35;;;;;;;;;;5054086;28;20021;-70
2022/03/12 12:20:08;;;;;;;6.78;1.90;;;;;;;;;;5053958;28;20033;-71
2022/03/12 12:22:34;;;;;;;9.05;2.35;;;;;;;;;;5053962;28;20506;-71
2022/03/12 12:25:03;;;;;;;7.65;2.40;;;;;;;;;;5035758;28;20405;-71
2022/03/12 12:27:42;;;;;;;10.43;2.17;;;;;;;;;;5053621;28;20382;-70
2022/03/12 12:30:10;;;;;;;10.15;2.30;;;;;;;;;;5053570;28;20021;-70
2022/03/12 12:32:44;;;;;;;9.77;2.20;;;;;;;;;;5053819;28;20381;-70
2022/03/12 12:35:11;;;;;;;10.70;1.85;;;;;;;;;;5053567;28;20450;-68
2022/03/12 12:37:48;;;;;;;9.23;2.47;;;;;;;;;;5053440;28;20022;-69
2022/03/12 12:40:18;;;;;;;8.30;1.70;;;;;;;;;;5053328;28;20039;-70
2022/03/12 12:42:45;;;;;;;;;;;;;;;;;;5054092;28;20092;-71
2022/03/12 12:45:12;;;;;;;3.42;1.33;;;;;;;;;;5053380;28;19962;-70
2022/03/12 12:47:38;;;;;;;10.35;2.10;;;;;;;;;;5053555;28;20031;-70
2022/03/12 12:50:04;;;;;;;6.85;1.77;;;;;;;;;;5053260;28;20056;-70
2022/03/12 12:52:32;;;;;;;12.57;2.13;;;;;;;;;;5053219;28;20025;-70
2022/03/12 12:55:01;;;;;;;12.80;2.45;;;;;;;;;;5035683;28;20428;-69
2022/03/12 12:57:50;;;;;;;9.10;2.50;;;;;;;;;;5053206;28;20025;-69
2022/03/12 13:00:22;;;;;;;7.68;2.15;;;;;;;;;;5053663;28;20469;-70
2022/03/12 13:02:52;;;;;;;8.52;2.22;;;;;;;;;;5053400;28;20031;-69
2022/03/12 13:05:18;;;;;;;8.32;2.00;;;;;;;;;;5053111;28;20037;-69
2022/03/12 13:08:00;;;;;;;4.97;1.55;;;;;;;;;;5053070;28;20385;-70
2022/03/12 13:10:26;;;;;;;8.98;2.30;;;;;;;;;;5053108;28;20021;-70
2022/03/12 13:13:07;;;;;;;6.40;1.75;;;;;;;;;;5053013;28;20053;-70
2022/03/12 13:15:37;;;;;;;6.45;1.70;;;18.00;70.20;;;;;;5053360;28;20029;-70
2022/03/12 13:18:14;;;;;;;11.45;2.13;;;;;;;;;;5053366;28;20104;-70
2022/03/12 13:20:44;;;;;;;10.55;2.30;;;;;;;;;;5053357;28;20025;-69
2022/03/12 13:23:10;;;;;;;;;;;;;;;;;;5053836;28;20433;-70
2022/03/12 13:25:45;;;;;;;10.48;1.77;;;;;;;;;;5053592;28;19904;-68
2022/03/12 13:28:15;;;;;;;6.97;1.98;;;;;;;;;;5053234;28;20025;-69
2022/03/12 13:30:41;;;;;;;6.77;1.63;;;;;;;;;;5052943;28;20029;-68
2022/03/12 13:33:10;;;;;;;7.93;2.05;;;;;;;;;;5053179;28;20267;-69
2022/03/12 13:35:36;;;;;;;7.07;1.70;;;;;;;;;;5053462;28;20098;-70
2022/03/12 13:38:03;;;;;;;7.93;1.70;;;;;;;;;;5053100;28;20102;-69
2022/03/12 13:40:30;;;;;;;7.93;2.40;;;;;;;;;;5052765;28;20083;-69
2022/03/12 13:42:57;;;;;;;6.13;2.40;;;;;;;;;;5053294;28;20027;-70
2022/03/12 13:45:24;;;;;;;9.23;1.95;;;;;;;;;;5052994;28;20049;-70
2022/03/12 13:47:51;;;;;;;7.43;2.00;;;;;;;;;;5052964;28;20100;-69
2022/03/12 13:50:17;;;;;;;7.53;1.90;;;;;;;;;;5052968;28;20024;-70
2022/03/12 13:52:44;;;;;;;7.28;1.75;;;;;;;;;;5052881;28;20477;-69
2022/03/12 13:55:10;;;;;;;6.70;1.70;;;;;;;;;;5052450;28;20090;-69
2022/03/12 13:57:38;;;;;;;8.50;2.00;;;;;;;;;;5034752;28;20044;-69
2022/03/12 14:00:05;;;;;;;7.55;1.90;;;;;;;;;;5052533;28;20104;-69
2022/03/12 14:02:32;;;;;;;5.95;1.80;;;;;;;;;;5052538;28;20556;-69
2022/03/12 14:04:59;;;;;;;7.65;1.63;;;;;;;;;;5052301;28;20502;-69
2022/03/12 14:07:25;;;;;;;6.78;1.73;;;;;;;;;;5055773;28;20545;-70
2022/03/12 14:09:52;;;;;;;9.60;1.85;;;;;;;;;;5056197;28;20425;-69
2022/03/12 14:12:25;;;;;;;7.00;1.67;;;;;;;;;;5056140;28;20028;-69
2022/03/12 14:14:51;;;;;;;10.05;2.28;;;;;;;;;;5056370;28;20029;-69
2022/03/12 14:17:27;;;;;;;6.43;1.50;;;;;;;;;;5056053;28;20039;-70
2022/03/12 14:19:57;;;;;;;6.32;1.98;;;;;;;;;;5056254;28;20021;-69
2022/03/12 14:22:23;;;;;;;6.60;1.77;;;;;;;;;;5055999;28;20094;-70
2022/03/12 14:24:53;;;;;;;8.38;2.13;;;;;;;;;;5056207;28;20424;-69
2022/03/12 14:27:22;;;;;;;8.73;2.40;;;;;;;;;;5056080;28;20031;-68